Time;durP1;ratioP1;P1;durP2;ratioP2;P2;SDS_P1;SDS_P2;PMS_P1;PMS_P2;Temp;Humidity;BMP_temperature;BMP_pressure;BME280_temperature;BME280_humidity;BME280_pressure;Samples;Min_cycle;Max_cycle;Signal;HPM_P1;HPM_P2
2023/11/18 00:01:48;;;;;;;0.40;0.40;;;5.50;99.90;;;;;;4423423;32;20725;-60
2023/11/18 00:04:15;;;;;;;0.25;0.25;;;5.50;99.90;;;;;;4428349;32;20089;-61
2023/11/18 00:06:45;;;;;;;0.30;0.30;;;5.50;99.90;;;;;;4425653;32;20072;-60
2023/11/18 00:09:13;;;;;;;0.60;0.60;;;5.50;99.90;;;;;;4426829;32;20136;-60
2023/11/18 00:11:39;;;;;;;0.50;0.50;;;5.50;99.90;;;;;;4426696;32;20101;-61
2023/11/18 00:14:05;;;;;;;0.43;0.43;;;5.50;99.90;;;;;;4427126;32;20081;-60
2023/11/18 00:16:31;;;;;;;0.30;0.30;;;5.50;99.90;;;;;;4426497;32;20057;-60
2023/11/18 00:18:58;;;;;;;0.40;0.40;;;5.50;99.90;;;;;;4427667;32;20406;-60
2023/11/18 00:21:24;;;;;;;0.37;0.37;;;5.50;99.90;;;;;;4425292;32;20120;-59
2023/11/18 00:23:49;;;;;;;0.40;0.40;;;5.50;99.90;;;;;;4427552;32;20074;-60
2023/11/18 00:26:15;;;;;;;1.65;0.68;;;5.50;99.90;;;;;;4427736;32;20073;-60
2023/11/18 00:28:40;;;;;;;0.57;0.57;;;5.50;99.90;;;;;;4426339;32;20398;-60
2023/11/18 00:31:06;;;;;;;0.30;0.30;;;5.50;99.90;;;;;;4423037;32;20084;-61
2023/11/18 00:33:31;;;;;;;0.37;0.37;;;5.50;99.90;;;;;;4422081;32;20120;-61
2023/11/18 00:35:57;;;;;;;0.30;0.30;;;5.60;99.90;;;;;;4422861;32;20371;-61
2023/11/18 00:38:23;;;;;;;0.30;0.30;;;5.50;99.90;;;;;;4425640;32;20492;-62
2023/11/18 00:40:48;;;;;;;0.75;0.75;;;5.50;99.90;;;;;;4425579;32;20116;-61
2023/11/18 00:43:14;;;;;;;0.43;0.43;;;5.50;99.90;;;;;;4425458;32;20184;-61
2023/11/18 00:45:41;;;;;;;0.60;0.60;;;5.50;99.90;;;;;;4424976;32;20058;-60
2023/11/18 00:48:06;;;;;;;0.20;0.20;;;5.50;99.90;;;;;;4425881;32;21127;-61
2023/11/18 00:50:33;;;;;;;1.35;0.73;;;5.60;99.90;;;;;;4428210;32;20133;-61
2023/11/18 00:52:58;;;;;;;0.40;0.40;;;5.60;99.90;;;;;;4426376;32;20146;-59
2023/11/18 00:55:24;;;;;;;0.30;0.30;;;5.60;99.90;;;;;;4427653;32;20203;-60
2023/11/18 00:57:49;;;;;;;0.35;0.35;;;5.60;99.90;;;;;;4424220;32;20423;-61
2023/11/18 01:00:19;;;;;;;0.68;0.68;;;5.60;99.90;;;;;;4427830;32;20073;-60
2023/11/18 01:02:46;;;;;;;0.45;0.45;;;5.60;99.90;;;;;;4429163;32;20066;-59
2023/11/18 01:05:13;;;;;;;0.50;0.50;;;5.60;99.90;;;;;;4428666;32;20093;-61
2023/11/18 01:07:39;;;;;;;0.22;0.22;;;5.60;99.90;;;;;;4425515;32;20073;-62
2023/11/18 01:10:06;;;;;;;0.30;0.30;;;5.60;99.90;;;;;;4429505;32;20131;-62
2023/11/18 01:12:31;;;;;;;0.50;0.50;;;5.60;99.90;;;;;;4427226;32;20089;-62
2023/11/18 01:14:57;;;;;;;1.00;0.75;;;5.60;99.90;;;;;;4428403;32;20652;-61
2023/11/18 01:17:23;;;;;;;0.40;0.40;;;5.60;99.90;;;;;;4426264;32;20554;-61
2023/11/18 01:19:49;;;;;;;0.60;0.60;;;5.50;99.90;;;;;;4425919;32;20070;-61
2023/11/18 01:22:14;;;;;;;0.52;0.52;;;5.50;99.90;;;;;;4427223;32;20085;-62
2023/11/18 01:24:40;;;;;;;0.43;0.43;;;5.50;99.90;;;;;;4431953;32;20532;-61
2023/11/18 01:27:09;;;;;;;0.55;0.55;;;5.60;99.90;;;;;;4428886;32;20054;-62
2023/11/18 01:29:35;;;;;;;0.40;0.40;;;5.60;99.90;;;;;;4430526;32;20080;-62
2023/11/18 01:32:00;;;;;;;0.57;0.57;;;5.50;99.90;;;;;;4427084;32;20554;-61
2023/11/18 01:34:27;;;;;;;1.85;0.68;;;5.50;99.90;;;;;;4429739;32;20068;-61
2023/11/18 01:36:53;;;;;;;0.25;0.25;;;5.50;99.90;;;;;;4428535;32;20074;-62
2023/11/18 01:39:18;;;;;;;0.40;0.40;;;5.60;99.90;;;;;;4430711;32;20391;-61
2023/11/18 01:41:45;;;;;;;0.30;0.30;;;5.60;99.90;;;;;;4428038;32;20080;-61
2023/11/18 01:44:13;;;;;;;0.45;0.45;;;5.60;99.90;;;;;;4427934;32;20138;-60
2023/11/18 01:46:40;;;;;;;0.30;0.30;;;5.60;99.90;;;;;;4426544;32;20077;-61
2023/11/18 01:49:07;;;;;;;0.62;0.45;;;5.60;99.90;;;;;;4429356;32;20069;-61
2023/11/18 01:51:35;;;;;;;0.30;0.30;;;5.50;99.90;;;;;;4429239;32;20070;-62
2023/11/18 01:54:02;;;;;;;0.40;0.40;;;5.50;99.90;;;;;;4431259;32;20139;-61
2023/11/18 01:56:28;;;;;;;0.40;0.40;;;5.60;99.90;;;;;;4427974;32;20125;-59
2023/11/18 01:58:53;;;;;;;0.30;0.30;;;5.60;99.90;;;;;;4430274;32;20418;-61
2023/11/18 02:01:19;;;;;;;1.75;0.68;;;5.60;99.90;;;;;;4431911;32;20070;-60
2023/11/18 02:03:47;;;;;;;0.40;0.40;;;5.60;99.90;;;;;;4428091;32;20545;-59
2023/11/18 02:06:13;;;;;;;0.32;0.32;;;5.50;99.90;;;;;;4429462;32;20081;-59
2023/11/18 02:08:38;;;;;;;0.30;0.30;;;5.50;99.90;;;;;;4429900;32;20183;-60
2023/11/18 02:11:20;;;;;;;0.70;0.70;;;5.60;99.90;;;;;;4431266;32;20078;-60
2023/11/18 02:13:49;;;;;;;0.30;0.30;;;5.60;99.90;;;;;;4428514;32;20057;-59
2023/11/18 02:16:16;;;;;;;0.40;0.40;;;5.60;99.90;;;;;;4425875;32;20070;-60
2023/11/18 02:18:43;;;;;;;0.40;0.40;;;5.60;99.90;;;;;;4425558;32;20089;-59
2023/11/18 02:21:11;;;;;;;0.30;0.30;;;5.70;99.90;;;;;;4429836;32;20085;-59
2023/11/18 02:23:37;;;;;;;0.30;0.30;;;5.60;99.90;;;;;;4426811;32;20093;-59
2023/11/18 02:26:03;;;;;;;0.40;0.40;;;5.60;99.90;;;;;;4428456;32;20062;-59
2023/11/18 02:28:28;;;;;;;0.40;0.40;;;5.60;99.90;;;;;;4427160;32;20065;-60
2023/11/18 02:31:01;;;;;;;0.30;0.30;;;5.60;99.90;;;;;;4428229;32;20160;-58
2023/11/18 02:33:34;;;;;;;0.30;0.30;;;5.60;99.90;;;;;;4427937;32;20528;-59
2023/11/18 02:36:08;;;;;;;0.32;0.32;;;5.50;99.90;;;;;;4428145;32;20481;-58
2023/11/18 02:38:42;;;;;;;2.78;1.10;;;5.50;99.90;;;;;;4428283;32;20387;-59
2023/11/18 02:41:12;;;;;;;0.40;0.40;;;5.50;99.90;;;;;;4428996;32;20108;-59
2023/11/18 02:43:39;;;;;;;3.17;0.60;;;5.60;99.90;;;;;;4432095;32;20077;-59
2023/11/18 02:46:09;;;;;;;0.40;0.40;;;5.50;99.90;;;;;;4428329;32;20127;-59
2023/11/18 02:48:35;;;;;;;0.43;0.43;;;5.60;99.90;;;;;;4426769;32;20112;-59
2023/11/18 02:51:01;;;;;;;0.30;0.30;;;5.60;99.90;;;;;;4429202;32;20077;-59
2023/11/18 02:53:27;;;;;;;2.17;0.68;;;5.60;99.90;;;;;;4427844;32;20061;-57
2023/11/18 02:55:53;;;;;;;2.35;0.88;;;5.60;99.90;;;;;;4425808;32;20069;-58
2023/11/18 02:58:19;;;;;;;0.50;0.50;;;5.60;99.90;;;;;;4429739;32;20132;-60
2023/11/18 03:00:45;;;;;;;7.00;1.05;;;5.70;99.90;;;;;;4426847;32;20078;-60
2023/11/18 03:03:10;;;;;;;0.57;0.57;;;5.70;99.90;;;;;;4428277;32;20089;-59
2023/11/18 03:05:37;;;;;;;0.20;0.20;;;5.70;99.90;;;;;;4430190;32;20423;-60
2023/11/18 03:08:05;;;;;;;0.28;0.28;;;5.60;99.90;;;;;;4412736;32;20085;-60
2023/11/18 03:10:33;;;;;;;0.37;0.37;;;5.60;99.90;;;;;;4430106;32;20121;-60
2023/11/18 03:12:58;;;;;;;0.40;0.40;;;5.50;99.90;;;;;;4429883;32;20090;-59
2023/11/18 03:15:25;;;;;;;0.30;0.30;;;5.50;99.90;;;;;;4429047;32;20069;-59
2023/11/18 03:17:51;;;;;;;0.37;0.37;;;5.50;99.90;;;;;;4426951;32;20330;-59
2023/11/18 03:20:18;;;;;;;0.50;0.50;;;5.50;99.90;;;;;;4427284;32;20065;-59
2023/11/18 03:22:44;;;;;;;0.30;0.30;;;5.50;99.90;;;;;;4413101;32;20097;-60
2023/11/18 03:25:11;;;;;;;0.77;0.40;;;5.50;99.90;;;;;;4428236;32;20119;-60
2023/11/18 03:27:36;;;;;;;0.32;0.32;;;5.40;99.90;;;;;;4427968;32;20118;-60
2023/11/18 03:30:02;;;;;;;0.30;0.30;;;5.50;99.90;;;;;;4423595;32;20140;-60
2023/11/18 03:32:28;;;;;;;0.30;0.30;;;5.40;99.90;;;;;;4424683;32;20096;-59
2023/11/18 03:34:53;;;;;;;0.37;0.37;;;5.40;99.90;;;;;;4428056;32;20532;-59
2023/11/18 03:37:23;;;;;;;0.40;0.40;;;5.40;99.90;;;;;;4430681;32;20097;-58
2023/11/18 03:39:48;;;;;;;0.30;0.30;;;5.40;99.90;;;;;;4425816;32;20473;-60
2023/11/18 03:42:15;;;;;;;0.30;0.30;;;5.50;99.90;;;;;;4426648;32;20069;-60
2023/11/18 03:44:41;;;;;;;0.30;0.30;;;5.50;99.90;;;;;;4426201;32;20077;-60
2023/11/18 03:47:06;;;;;;;0.30;0.30;;;5.50;99.90;;;;;;4428148;32;20088;-58
2023/11/18 03:49:32;;;;;;;0.30;0.30;;;5.50;99.90;;;;;;4427558;32;20061;-60
2023/11/18 03:51:58;;;;;;;2.72;1.30;;;5.40;99.90;;;;;;4426644;32;20132;-60
2023/11/18 03:54:23;;;;;;;0.77;0.45;;;5.40;99.90;;;;;;4427596;32;20077;-59
2023/11/18 03:56:48;;;;;;;0.40;0.40;;;5.40;99.90;;;;;;4431830;32;20074;-59
2023/11/18 03:59:14;;;;;;;0.20;0.20;;;5.40;99.90;;;;;;4427336;32;20073;-60
2023/11/18 04:01:40;;;;;;;0.40;0.40;;;5.50;99.90;;;;;;4427321;32;20083;-59
2023/11/18 04:04:06;;;;;;;0.50;0.50;;;5.50;99.90;;;;;;4428281;32;20077;-60
2023/11/18 04:06:31;;;;;;;0.30;0.30;;;5.40;99.90;;;;;;4427632;32;20081;-61
2023/11/18 04:08:57;;;;;;;0.52;0.47;;;5.40;99.90;;;;;;4430389;32;20073;-61
2023/11/18 04:11:23;;;;;;;0.32;0.32;;;5.40;99.90;;;;;;4432729;32;20073;-58
2023/11/18 04:13:49;;;;;;;0.30;0.30;;;5.50;99.90;;;;;;4425562;32;20068;-61
2023/11/18 04:16:15;;;;;;;0.62;0.62;;;5.50;99.90;;;;;;4424865;32;20123;-60
2023/11/18 04:18:41;;;;;;;0.40;0.40;;;5.40;99.90;;;;;;4427739;32;20282;-61
2023/11/18 04:21:08;;;;;;;0.30;0.30;;;5.40;99.90;;;;;;4431342;32;20109;-60
2023/11/18 04:23:36;;;;;;;0.30;0.30;;;5.50;99.90;;;;;;4413812;32;20066;-60
2023/11/18 04:26:03;;;;;;;0.60;0.50;;;5.50;99.90;;;;;;4429928;32;20120;-59
2023/11/18 04:28:29;;;;;;;0.30;0.30;;;5.40;99.90;;;;;;4427481;32;20057;-58
2023/11/18 04:30:55;;;;;;;0.57;0.57;;;5.40;99.90;;;;;;4425492;32;20962;-61
2023/11/18 04:33:20;;;;;;;0.65;0.65;;;5.40;99.90;;;;;;4425901;32;20216;-60
2023/11/18 04:35:46;;;;;;;2.70;0.60;;;5.40;99.90;;;;;;4430569;32;20085;-61
2023/11/18 04:38:12;;;;;;;0.88;0.50;;;5.40;99.90;;;;;;4425916;32;20085;-60
2023/11/18 04:40:38;;;;;;;1.87;0.60;;;5.40;99.90;;;;;;4428849;32;20525;-60
2023/11/18 04:43:04;;;;;;;0.75;0.65;;;5.40;99.90;;;;;;4428857;32;20149;-60
2023/11/18 04:45:30;;;;;;;0.57;0.57;;;5.30;99.90;;;;;;4429228;32;20219;-59
2023/11/18 04:47:56;;;;;;;0.40;0.40;;;5.40;99.90;;;;;;4431006;32;20098;-60
2023/11/18 04:50:22;;;;;;;0.30;0.30;;;5.30;99.90;;;;;;4429949;32;20097;-60
2023/11/18 04:52:47;;;;;;;0.65;0.50;;;5.30;99.90;;;;;;4429928;32;20057;-60
2023/11/18 04:55:13;;;;;;;0.57;0.57;;;5.30;99.90;;;;;;4428293;32;20069;-60
2023/11/18 04:57:39;;;;;;;0.60;0.60;;;5.30;99.90;;;;;;4429569;32;20074;-61
2023/11/18 05:00:10;;;;;;;0.40;0.40;;;5.40;99.90;;;;;;4427530;32;20107;-60
2023/11/18 05:02:33;;;;;;;0.85;0.85;;;5.30;99.90;;;;;;4430948;32;20517;-60
2023/11/18 05:04:59;;;;;;;0.50;0.50;;;5.20;99.90;;;;;;4430138;32;20090;-60
2023/11/18 05:07:24;;;;;;;0.30;0.30;;;5.20;99.90;;;;;;4429331;32;20090;-60
2023/11/18 05:09:49;;;;;;;0.30;0.30;;;5.20;99.90;;;;;;4427208;32;20065;-60
2023/11/18 05:12:15;;;;;;;0.93;0.85;;;5.20;99.90;;;;;;4431328;32;20135;-61
2023/11/18 05:14:40;;;;;;;0.57;0.50;;;5.20;99.90;;;;;;4429882;32;20545;-60
2023/11/18 05:17:06;;;;;;;0.30;0.30;;;5.20;99.90;;;;;;4430751;32;20132;-61
2023/11/18 05:19:31;;;;;;;0.35;0.35;;;5.20;99.90;;;;;;4432409;32;20142;-60
2023/11/18 05:21:57;;;;;;;0.30;0.30;;;5.20;99.90;;;;;;4427530;32;20065;-61
2023/11/18 05:24:22;;;;;;;0.77;0.60;;;5.20;99.90;;;;;;4428077;32;20068;-59
2023/11/18 05:26:47;;;;;;;0.55;0.50;;;5.20;99.90;;;;;;4428307;32;20172;-61
2023/11/18 05:29:16;;;;;;;0.30;0.30;;;5.20;99.90;;;;;;4428889;32;20532;-60
2023/11/18 05:31:41;;;;;;;0.40;0.40;;;5.20;99.90;;;;;;4428646;32;20571;-62
2023/11/18 05:34:07;;;;;;;0.80;0.55;;;5.20;99.90;;;;;;4430433;32;20126;-60
2023/11/18 05:36:37;;;;;;;0.30;0.30;;;5.20;99.90;;;;;;4430834;32;20475;-61
2023/11/18 05:39:04;;;;;;;0.30;0.30;;;5.20;99.90;;;;;;4430417;32;20074;-59
2023/11/18 05:41:30;;;;;;;1.05;0.65;;;5.10;99.90;;;;;;4427222;32;20054;-60
2023/11/18 05:43:57;;;;;;;0.65;0.65;;;5.20;99.90;;;;;;4430121;32;20053;-60
2023/11/18 05:46:25;;;;;;;0.32;0.32;;;5.10;99.90;;;;;;4430238;32;20450;-60
2023/11/18 05:48:52;;;;;;;0.45;0.45;;;5.10;99.90;;;;;;4430973;32;20074;-61
2023/11/18 05:51:22;;;;;;;0.43;0.43;;;5.20;99.90;;;;;;4428724;32;20058;-60
2023/11/18 05:53:47;;;;;;;0.45;0.45;;;5.20;99.90;;;;;;4419851;32;20081;-60
2023/11/18 05:56:16;;;;;;;0.40;0.40;;;5.20;99.90;;;;;;4427514;32;20087;-59
2023/11/18 05:58:43;;;;;;;0.40;0.40;;;5.20;99.90;;;;;;4430133;32;20072;-60
2023/11/18 06:01:10;;;;;;;0.47;0.47;;;5.20;99.90;;;;;;4426774;32;20414;-61
2023/11/18 06:03:38;;;;;;;4.03;0.80;;;5.20;99.90;;;;;;4433177;32;20598;-60
2023/11/18 06:06:06;;;;;;;0.43;0.43;;;5.20;99.90;;;;;;4434566;32;20159;-58
2023/11/18 06:08:32;;;;;;;0.40;0.40;;;5.20;99.90;;;;;;4427660;32;20150;-60
2023/11/18 06:10:58;;;;;;;0.30;0.30;;;5.20;99.90;;;;;;4428517;32;20069;-61
2023/11/18 06:13:24;;;;;;;0.50;0.50;;;5.20;99.90;;;;;;4429179;32;21262;-59
2023/11/18 06:15:51;;;;;;;0.35;0.35;;;5.20;99.90;;;;;;4430338;32;20081;-59
2023/11/18 06:18:18;;;;;;;0.30;0.30;;;5.10;99.90;;;;;;4428525;32;20123;-60
2023/11/18 06:20:44;;;;;;;0.30;0.30;;;5.10;99.90;;;;;;4431227;32;20061;-60
2023/11/18 06:23:10;;;;;;;1.10;1.00;;;5.10;99.90;;;;;;4428603;32;20411;-60
2023/11/18 06:25:35;;;;;;;0.40;0.40;;;5.10;99.90;;;;;;4431461;32;20081;-60
2023/11/18 06:28:02;;;;;;;0.60;0.60;;;5.20;99.90;;;;;;4430815;32;20599;-60
2023/11/18 06:30:27;;;;;;;2.72;0.65;;;5.20;99.90;;;;;;4425904;32;20431;-59
2023/11/18 06:32:53;;;;;;;0.30;0.30;;;5.30;99.90;;;;;;4425424;32;20065;-60
2023/11/18 06:35:19;;;;;;;0.43;0.43;;;5.30;99.90;;;;;;4424433;32;20077;-60
2023/11/18 06:37:45;;;;;;;0.40;0.40;;;5.30;99.90;;;;;;4426105;32;20089;-60
2023/11/18 06:40:16;;;;;;;0.45;0.45;;;5.30;99.90;;;;;;4427622;32;20509;-60
2023/11/18 06:42:42;;;;;;;0.32;0.32;;;5.30;99.90;;;;;;4430447;32;20090;-60
2023/11/18 06:45:09;;;;;;;0.30;0.30;;;5.20;99.90;;;;;;4426920;32;20074;-60
2023/11/18 06:47:38;;;;;;;0.30;0.30;;;5.20;99.90;;;;;;4426465;32;20447;-60
2023/11/18 06:50:03;;;;;;;0.50;0.50;;;5.20;99.90;;;;;;4426093;32;20216;-60
2023/11/18 06:52:29;;;;;;;1.58;0.60;;;5.20;99.90;;;;;;4427534;32;20496;-60
2023/11/18 06:54:54;;;;;;;0.40;0.40;;;5.20;99.90;;;;;;4425167;32;20081;-59
2023/11/18 06:57:21;;;;;;;0.65;0.65;;;5.30;99.90;;;;;;4428884;32;20106;-60
2023/11/18 06:59:47;;;;;;;0.57;0.57;;;5.30;99.90;;;;;;4428060;32;20675;-60
2023/11/18 07:02:13;;;;;;;0.60;0.60;;;5.30;99.90;;;;;;4428163;32;20062;-60
2023/11/18 07:04:38;;;;;;;0.20;0.20;;;5.30;99.90;;;;;;4428500;32;20053;-60
2023/11/18 07:07:04;;;;;;;0.30;0.30;;;5.30;99.90;;;;;;4430869;32;20090;-59
2023/11/18 07:09:35;;;;;;;0.68;0.68;;;5.30;99.90;;;;;;4429696;32;20073;-60
2023/11/18 07:12:03;;;;;;;1.55;0.50;;;5.40;99.90;;;;;;4428272;32;20073;-60
2023/11/18 07:14:28;;;;;;;0.57;0.47;;;5.40;99.90;;;;;;4430470;32;20112;-59
2023/11/18 07:16:54;;;;;;;0.30;0.30;;;5.30;99.90;;;;;;4427431;32;20120;-59
2023/11/18 07:19:20;;;;;;;0.35;0.35;;;5.30;99.90;;;;;;4429632;32;20082;-61
2023/11/18 07:21:47;;;;;;;0.70;0.55;;;5.30;99.90;;;;;;4426362;32;20076;-60
2023/11/18 07:24:12;;;;;;;0.40;0.40;;;5.40;99.90;;;;;;4425222;32;20105;-60
2023/11/18 07:26:37;;;;;;;0.45;0.40;;;5.40;99.90;;;;;;4427583;32;20525;-60
2023/11/18 07:29:03;;;;;;;0.40;0.40;;;5.50;99.90;;;;;;4429401;32;20081;-59
2023/11/18 07:31:28;;;;;;;0.40;0.40;;;5.50;99.90;;;;;;4427854;32;20118;-59
2023/11/18 07:33:54;;;;;;;0.60;0.60;;;5.50;99.90;;;;;;4426841;32;20161;-59
2023/11/18 07:36:20;;;;;;;3.03;0.73;;;5.50;99.90;;;;;;4426644;32;20195;-60
2023/11/18 07:38:46;;;;;;;0.50;0.50;;;5.50;99.90;;;;;;4425987;32;20427;-61
2023/11/18 07:41:23;;;;;;;0.40;0.40;;;5.60;99.90;;;;;;4429348;32;20185;-60
2023/11/18 07:43:50;;;;;;;0.85;0.68;;;5.60;99.90;;;;;;4429535;32;20077;-60
2023/11/18 07:46:15;;;;;;;0.47;0.47;;;5.60;99.90;;;;;;4428963;32;20073;-60
2023/11/18 07:48:41;;;;;;;0.50;0.50;;;5.60;99.90;;;;;;4430011;32;20137;-59
2023/11/18 07:51:08;;;;;;;0.40;0.40;;;5.60;99.90;;;;;;4429267;32;20170;-60
2023/11/18 07:53:33;;;;;;;0.45;0.45;;;5.70;99.90;;;;;;4429619;32;20121;-59
2023/11/18 07:56:02;;;;;;;0.85;0.77;;;5.70;99.90;;;;;;4429247;32;20073;-60
2023/11/18 07:58:27;;;;;;;0.65;0.47;;;5.60;99.90;;;;;;4429448;32;20062;-61
2023/11/18 08:00:54;;;;;;;0.40;0.40;;;5.50;99.90;;;;;;4429208;32;20076;-60
2023/11/18 08:03:20;;;;;;;0.65;0.65;;;5.40;99.90;;;;;;4429701;32;20077;-60
2023/11/18 08:05:46;;;;;;;0.37;0.37;;;5.50;99.90;;;;;;4430563;32;20131;-60
2023/11/18 08:08:12;;;;;;;0.52;0.52;;;5.50;99.90;;;;;;4431978;32;20061;-58
2023/11/18 08:10:39;;;;;;;0.60;0.60;;;5.70;99.90;;;;;;4433278;32;20069;-60
2023/11/18 08:13:06;;;;;;;0.40;0.40;;;5.80;99.90;;;;;;4429714;32;20084;-61
2023/11/18 08:15:32;;;;;;;0.40;0.40;;;5.80;99.90;;;;;;4430337;32;20127;-60
2023/11/18 08:17:57;;;;;;;0.70;0.52;;;5.80;99.90;;;;;;4434641;32;20054;-58
2023/11/18 08:20:25;;;;;;;0.45;0.45;;;5.80;99.90;;;;;;4429633;32;20415;-60
2023/11/18 08:22:50;;;;;;;0.65;0.47;;;5.80;99.90;;;;;;4431997;32;20088;-61
2023/11/18 08:25:17;;;;;;;0.43;0.43;;;5.90;99.90;;;;;;4432234;32;20073;-60
2023/11/18 08:27:43;;;;;;;1.20;0.62;;;5.80;99.90;;;;;;4430893;32;20070;-60
2023/11/18 08:30:11;;;;;;;0.50;0.50;;;5.90;99.90;;;;;;4429702;32;20136;-61
2023/11/18 08:32:37;;;;;;;0.40;0.40;;;5.80;99.90;;;;;;4427693;32;20541;-60
2023/11/18 08:35:06;;;;;;;0.30;0.30;;;5.80;99.90;;;;;;4429971;32;20517;-60
2023/11/18 08:37:32;;;;;;;0.60;0.60;;;5.70;99.90;;;;;;4431316;32;20065;-60
2023/11/18 08:39:58;;;;;;;0.37;0.37;;;5.80;99.90;;;;;;4432822;32;20163;-62
2023/11/18 08:42:24;;;;;;;1.15;1.05;;;5.80;99.90;;;;;;4432857;32;20531;-61
2023/11/18 08:44:49;;;;;;;0.40;0.40;;;5.90;99.90;;;;;;4432086;32;20105;-60
2023/11/18 08:47:15;;;;;;;5.72;2.42;;;5.90;99.90;;;;;;4432143;32;20081;-60
2023/11/18 08:49:46;;;;;;;0.35;0.35;;;5.80;99.90;;;;;;4429996;32;20427;-60
2023/11/18 08:52:12;;;;;;;0.60;0.60;;;5.80;99.90;;;;;;4430994;32;20109;-60
2023/11/18 08:55:00;;;;;;;0.30;0.30;;;5.80;99.90;;;;;;4430714;32;20717;-59
2023/11/18 08:57:25;;;;;;;0.30;0.30;;;5.80;99.90;;;;;;4429428;32;20129;-61
2023/11/18 08:59:51;;;;;;;0.55;0.55;;;5.90;99.90;;;;;;4429865;32;20496;-58
2023/11/18 09:02:23;;;;;;;0.73;0.65;;;5.80;99.90;;;;;;4415831;32;20069;-60
2023/11/18 09:04:49;;;;;;;0.57;0.57;;;5.90;99.90;;;;;;4433767;32;20065;-60
2023/11/18 09:07:15;;;;;;;0.35;0.35;;;5.90;99.90;;;;;;4431932;32;20419;-60
2023/11/18 09:09:40;;;;;;;0.30;0.30;;;5.90;99.90;;;;;;4431549;32;20056;-60
2023/11/18 09:12:08;;;;;;;0.40;0.40;;;6.00;99.90;;;;;;4432057;32;20468;-60
2023/11/18 09:14:33;;;;;;;0.35;0.35;;;5.90;99.90;;;;;;4431100;32;20073;-60
2023/11/18 09:16:59;;;;;;;2.83;1.02;;;5.90;99.90;;;;;;4429239;32;20213;-60
2023/11/18 09:19:25;;;;;;;0.70;0.70;;;5.90;99.90;;;;;;4428121;32;20769;-60
2023/11/18 09:21:51;;;;;;;0.55;0.55;;;5.90;99.90;;;;;;4433710;32;20505;-60
2023/11/18 09:24:19;;;;;;;0.30;0.30;;;5.90;99.90;;;;;;4429812;32;20058;-60
2023/11/18 09:26:47;;;;;;;0.50;0.50;;;5.90;99.90;;;;;;4426725;32;20066;-60
2023/11/18 09:29:17;;;;;;;0.30;0.30;;;5.80;99.90;;;;;;4428674;32;20108;-60
2023/11/18 09:31:48;;;;;;;6.00;0.82;;;5.70;99.90;;;;;;4424000;32;20077;-60
2023/11/18 09:34:16;;;;;;;;;;;5.70;99.90;;;;;;4426491;32;20117;-60
2023/11/18 09:36:43;;;;;;;0.20;0.20;;;5.80;99.90;;;;;;4427870;32;19957;-60
2023/11/18 09:39:09;;;;;;;1.55;0.93;;;5.80;99.90;;;;;;4432480;32;20073;-60
2023/11/18 09:41:35;;;;;;;0.40;0.40;;;5.80;99.90;;;;;;4433813;32;20136;-60
2023/11/18 09:44:02;;;;;;;1.80;0.60;;;5.70;99.90;;;;;;4430212;32;20516;-60
2023/11/18 09:46:32;;;;;;;1.17;0.60;;;5.80;99.90;;;;;;4429853;32;20092;-59
2023/11/18 09:49:14;;;;;;;2.55;1.30;;;5.80;99.90;;;;;;4432075;32;20124;-60
2023/11/18 09:51:44;;;;;;;0.40;0.40;;;5.80;99.90;;;;;;4430450;32;20065;-60
2023/11/18 09:54:21;;;;;;;0.30;0.30;;;5.90;99.90;;;;;;4430725;32;20065;-59
2023/11/18 09:57:08;;;;;;;0.40;0.40;;;5.90;99.90;;;;;;4429706;32;20164;-60
2023/11/18 09:59:44;;;;;;;1.02;0.55;;;5.90;99.90;;;;;;4428503;32;20196;-61
2023/11/18 10:02:10;;;;;;;0.45;0.45;;;5.90;99.90;;;;;;4431107;32;20081;-59
2023/11/18 10:04:39;;;;;;;1.55;0.60;;;6.10;99.90;;;;;;4430667;32;20081;-60
2023/11/18 10:07:10;;;;;;;0.30;0.30;;;6.10;99.90;;;;;;4429630;32;20415;-61
2023/11/18 10:09:39;;;;;;;0.62;0.62;;;6.10;99.90;;;;;;4430262;32;20061;-60
2023/11/18 10:12:07;;;;;;;0.40;0.40;;;6.30;99.90;;;;;;4430070;32;20077;-59
2023/11/18 10:14:34;;;;;;;0.52;0.52;;;6.20;99.90;;;;;;4426436;32;20077;-60
2023/11/18 10:17:06;;;;;;;0.60;0.60;;;6.10;99.90;;;;;;4426117;32;20117;-60
2023/11/18 10:19:55;;;;;;;0.60;0.60;;;6.10;99.90;;;;;;4423376;32;20505;-60
2023/11/18 10:22:27;;;;;;;0.30;0.30;;;6.10;99.90;;;;;;4427627;32;20114;-60
2023/11/18 10:24:55;;;;;;;0.62;0.62;;;6.00;99.90;;;;;;4429077;32;20089;-59
2023/11/18 10:27:23;;;;;;;1.35;0.68;;;6.00;99.90;;;;;;4429675;32;20081;-61
2023/11/18 10:29:52;;;;;;;0.40;0.40;;;5.90;99.90;;;;;;4424565;32;20078;-59
2023/11/18 10:32:20;;;;;;;0.85;0.85;;;5.90;99.90;;;;;;4426848;32;20119;-60
2023/11/18 10:34:48;;;;;;;0.75;0.75;;;5.90;99.90;;;;;;4428203;32;20504;-60
2023/11/18 10:37:13;;;;;;;1.05;0.95;;;6.00;99.90;;;;;;4432142;32;20076;-61
2023/11/18 10:39:39;;;;;;;0.32;0.32;;;6.10;99.90;;;;;;4428510;32;21428;-61
2023/11/18 10:42:05;;;;;;;0.40;0.40;;;6.10;99.90;;;;;;4429995;32;20189;-60
2023/11/18 10:44:31;;;;;;;0.40;0.40;;;6.10;99.90;;;;;;4427683;32;20077;-60
2023/11/18 10:46:58;;;;;;;0.40;0.40;;;6.00;99.90;;;;;;4433263;32;20443;-60
2023/11/18 10:49:24;;;;;;;0.50;0.50;;;6.00;99.90;;;;;;4429866;32;20078;-60
2023/11/18 10:51:51;;;;;;;2.92;0.95;;;6.00;99.90;;;;;;4430494;32;20065;-60
2023/11/18 10:54:19;;;;;;;0.37;0.37;;;6.00;99.90;;;;;;4425180;32;21651;-60
2023/11/18 10:56:47;;;;;;;12.13;0.93;;;5.90;99.90;;;;;;4432738;32;20073;-60
2023/11/18 10:59:16;;;;;;;3.00;1.40;;;5.80;99.90;;;;;;4432486;32;20536;-59
2023/11/18 11:04:06;;;;;;;0.30;0.30;;;5.90;99.90;;;;;;4428951;32;20073;-61
2023/11/18 11:06:33;;;;;;;0.30;0.30;;;5.90;99.90;;;;;;4429394;32;20072;-60
2023/11/18 11:08:59;;;;;;;0.73;0.70;;;5.90;99.90;;;;;;4430501;32;20426;-60
2023/11/18 11:11:28;;;;;;;0.47;0.47;;;5.90;99.90;;;;;;4426393;32;20069;-61
2023/11/18 11:14:00;;;;;;;0.43;0.43;;;5.80;99.90;;;;;;4428472;32;20057;-60
2023/11/18 11:16:38;;;;;;;0.40;0.40;;;5.80;99.90;;;;;;4413850;32;20061;-59
2023/11/18 11:19:08;;;;;;;0.77;0.73;;;5.80;99.90;;;;;;4416333;32;20119;-60
2023/11/18 11:21:47;;;;;;;0.77;0.77;;;5.90;99.90;;;;;;4429530;32;20074;-60
2023/11/18 11:24:34;;;;;;;2.03;1.20;;;6.00;99.90;;;;;;4415591;32;20136;-60
2023/11/18 11:27:15;;;;;;;0.85;0.85;;;6.00;99.90;;;;;;4428497;32;20085;-60
2023/11/18 11:29:59;;;;;;;0.90;0.90;;;6.20;99.90;;;;;;4429185;32;20060;-59
2023/11/18 11:32:32;;;;;;;0.52;0.52;;;6.20;99.90;;;;;;4427722;32;20099;-60
2023/11/18 11:35:07;;;;;;;0.55;0.55;;;6.30;99.90;;;;;;4425644;32;20069;-59
2023/11/18 11:37:34;;;;;;;0.40;0.40;;;6.40;99.90;;;;;;4426488;32;20061;-60
2023/11/18 11:40:04;;;;;;;1.48;0.73;;;6.60;99.90;;;;;;4427876;32;20081;-60
2023/11/18 11:42:31;;;;;;;0.60;0.60;;;6.70;99.90;;;;;;4428218;32;20097;-59
2023/11/18 11:44:58;;;;;;;1.00;0.82;;;6.70;99.90;;;;;;4425543;32;20119;-60
2023/11/18 11:47:28;;;;;;;0.75;0.75;;;6.60;99.90;;;;;;4427996;32;20049;-59
2023/11/18 11:50:10;;;;;;;0.60;0.60;;;6.60;99.90;;;;;;4426835;32;91148;-59
2023/11/18 11:52:38;;;;;;;0.70;0.70;;;6.60;99.90;;;;;;4426641;32;20069;-60
2023/11/18 11:55:13;;;;;;;0.52;0.52;;;6.50;99.90;;;;;;4428590;32;20061;-60
2023/11/18 11:57:42;;;;;;;0.70;0.70;;;6.40;99.90;;;;;;4428909;32;20126;-60
2023/11/18 12:02:35;;;;;;;0.60;0.60;;;6.40;99.90;;;;;;4428470;32;20156;-59
2023/11/18 12:05:06;;;;;;;10.70;1.60;;;6.40;99.90;;;;;;4429934;32;20057;-61
2023/11/18 12:07:38;;;;;;;0.55;0.52;;;6.50;99.90;;;;;;4429071;32;20438;-60
2023/11/18 12:10:15;;;;;;;0.52;0.52;;;6.50;99.90;;;;;;4427674;32;20065;-59
2023/11/18 12:12:42;;;;;;;0.65;0.65;;;6.40;99.90;;;;;;4414570;32;20596;-60
2023/11/18 12:15:17;;;;;;;0.43;0.43;;;6.40;99.90;;;;;;4431097;32;20078;-59
2023/11/18 12:18:03;;;;;;;1.08;0.55;;;6.40;99.90;;;;;;4431348;32;20169;-59
2023/11/18 12:20:47;;;;;;;0.60;0.60;;;6.50;99.90;;;;;;4431408;32;20112;-60
2023/11/18 12:23:14;;;;;;;0.62;0.62;;;6.50;99.90;;;;;;4428783;32;20065;-60
2023/11/18 12:25:41;;;;;;;0.35;0.35;;;6.50;99.90;;;;;;4417442;32;20127;-60
2023/11/18 12:28:08;;;;;;;0.43;0.43;;;6.50;99.90;;;;;;4424295;32;20066;-59
2023/11/18 12:30:37;;;;;;;0.62;0.62;;;6.50;99.90;;;;;;4427034;32;20077;-60
2023/11/18 12:33:08;;;;;;;0.50;0.50;;;6.50;99.90;;;;;;4427276;32;20074;-60
2023/11/18 12:36:01;;;;;;;0.50;0.50;;;6.40;99.90;;;;;;4426059;32;20559;-61
2023/11/18 12:39:03;;;;;;;0.50;0.50;;;6.50;99.90;;;;;;4425116;32;20077;-60
2023/11/18 12:41:38;;;;;;;1.77;0.93;;;6.60;99.90;;;;;;4425907;32;20094;-60
2023/11/18 12:44:31;;;;;;;0.62;0.62;;;6.80;99.90;;;;;;4420864;32;20093;-60
2023/11/18 12:47:09;;;;;;;0.65;0.60;;;6.90;99.90;;;;;;4419123;32;20090;-60
2023/11/18 12:49:41;;;;;;;2.72;0.75;;;7.10;99.90;;;;;;4424655;32;20077;-60
2023/11/18 12:52:08;;;;;;;0.47;0.32;;;7.30;99.90;;;;;;4422734;32;20085;-60
2023/11/18 12:54:37;;;;;;;0.73;0.73;;;7.70;99.90;;;;;;4427963;32;20054;-60
2023/11/18 12:57:03;;;;;;;0.80;0.80;;;7.60;99.90;;;;;;4429470;32;20078;-60
2023/11/18 12:59:30;;;;;;;0.37;0.37;;;7.70;99.90;;;;;;4427963;32;20606;-61
2023/11/18 13:01:56;;;;;;;18.87;0.98;;;7.60;99.90;;;;;;4430250;32;20070;-62
2023/11/18 13:04:24;;;;;;;0.50;0.50;;;7.50;99.90;;;;;;4428928;32;20790;-62
2023/11/18 13:06:51;;;;;;;0.90;0.85;;;7.40;99.90;;;;;;4429256;32;20532;-61